Time;durP1;ratioP1;P1;durP2;ratioP2;P2;SDS_P1;SDS_P2;PMS_P1;PMS_P2;Temp;Humidity;BMP_temperature;BMP_pressure;BME280_temperature;BME280_humidity;BME280_pressure;Samples;Min_cycle;Max_cycle;Signal;HPM_P1;HPM_P2
2023/03/30 00:00:52;;;;;;;;;;;6.80;99.90;;;;;;5075684;28;19913;-57
2023/03/30 00:03:18;;;;;;;;;;;6.80;99.90;;;;;;5075782;28;19927;-57
2023/03/30 00:05:45;;;;;;;;;;;6.80;99.90;;;;;;5075207;28;19939;-57
2023/03/30 00:08:13;;;;;;;;;;;6.70;99.90;;;;;;5075404;28;20342;-57
2023/03/30 00:10:39;;;;;;;;;;;6.70;99.90;;;;;;5075430;28;19912;-57
2023/03/30 00:13:06;;;;;;;;;;;6.60;99.90;;;;;;5075303;28;19927;-57
2023/03/30 00:15:32;;;;;;;;;;;6.60;99.90;;;;;;5075496;28;19912;-57
2023/03/30 00:17:58;;;;;;;;;;;6.60;99.90;;;;;;5075376;28;19978;-57
2023/03/30 00:20:24;;;;;;;;;;;6.70;99.90;;;;;;5075048;28;19916;-57
2023/03/30 00:22:50;;;;;;;;;;;6.70;99.90;;;;;;5075245;28;19955;-57
2023/03/30 00:25:17;;;;;;;;;;;6.70;99.90;;;;;;5075190;28;19984;-57
2023/03/30 00:27:43;;;;;;;;;;;6.60;99.90;;;;;;5075550;28;19922;-57
2023/03/30 00:30:12;;;;;;;;;;;6.50;99.90;;;;;;5057165;28;19948;-57
2023/03/30 00:32:38;;;;;;;;;;;6.60;99.90;;;;;;5075287;28;19924;-57
2023/03/30 00:35:04;;;;;;;;;;;6.60;99.90;;;;;;5075065;28;19988;-57
2023/03/30 00:37:31;;;;;;;;;;;6.60;99.90;;;;;;5075211;28;19995;-57
2023/03/30 00:39:57;;;;;;;;;;;6.50;99.90;;;;;;5074823;28;20392;-57
2023/03/30 00:42:23;;;;;;;;;;;6.40;99.90;;;;;;5075099;28;19955;-57
2023/03/30 00:45:12;;;;;;;;;;;6.40;99.90;;;;;;5074989;28;20400;-57
2023/03/30 00:47:45;;;;;;;;;;;6.40;99.90;;;;;;5056938;28;19916;-57
2023/03/30 00:50:11;;;;;;;;;;;6.30;99.90;;;;;;5074846;28;20307;-57
2023/03/30 00:52:37;;;;;;;;;;;6.20;99.90;;;;;;5074724;28;19973;-57
2023/03/30 00:55:06;;;;;;;;;;;6.20;99.90;;;;;;5074989;28;19944;-57
2023/03/30 00:57:35;;;;;;;;;;;6.20;99.90;;;;;;5056991;28;19924;-57
2023/03/30 01:00:01;;;;;;;;;;;6.10;99.90;;;;;;5074812;28;19916;-57
2023/03/30 01:02:30;;;;;;;;;;;5.90;99.90;;;;;;5074758;28;19943;-57
2023/03/30 01:04:56;;;;;;;;;;;5.70;99.90;;;;;;5056347;28;19955;-57
2023/03/30 01:07:23;;;;;;;;;;;5.50;99.90;;;;;;5056921;28;20285;-57
2023/03/30 01:09:50;;;;;;;;;;;5.50;99.90;;;;;;5074561;28;19963;-57
2023/03/30 01:12:17;;;;;;;;;;;5.40;99.90;;;;;;5074691;28;19943;-57
2023/03/30 01:14:45;;;;;;;;;;;5.40;99.90;;;;;;5074735;28;19924;-57
2023/03/30 01:17:14;;;;;;;;;;;5.20;99.90;;;;;;5074580;28;20316;-56
2023/03/30 01:19:42;;;;;;;;;;;5.10;99.90;;;;;;5074489;28;19913;-56
2023/03/30 01:22:35;;;;;;;;;;;5.00;99.90;;;;;;5074695;28;19921;-57
2023/03/30 01:25:10;;;;;;;;;;;4.90;99.90;;;;;;5044114;28;19916;-57
2023/03/30 01:27:44;;;;;;;;;;;4.80;99.90;;;;;;5074708;28;19919;-56
2023/03/30 01:30:11;;;;;;;;;;;4.70;99.90;;;;;;5056478;28;20289;-56
2023/03/30 01:32:37;;;;;;;;;;;4.60;99.90;;;;;;5056516;28;20592;-57
2023/03/30 01:35:04;;;;;;;;;;;4.70;99.90;;;;;;5074583;28;20263;-57
2023/03/30 01:37:41;;;;;;;;;;;4.50;99.90;;;;;;5056319;28;20353;-56
2023/03/30 01:40:08;;;;;;;;;;;4.40;99.90;;;;;;5074930;28;19980;-56
2023/03/30 01:42:38;;;;;;;;;;;4.30;99.90;;;;;;5074488;28;19916;-56
2023/03/30 01:45:30;;;;;;;;;;;4.30;99.90;;;;;;5056273;28;19917;-56
2023/03/30 01:48:02;;;;;;;;;;;4.20;99.90;;;;;;5052699;28;20419;-56
2023/03/30 01:50:38;;;;;;;;;;;4.10;99.90;;;;;;5056419;28;19924;-56
2023/03/30 01:53:10;;;;;;;;;;;4.10;99.90;;;;;;5074102;28;19927;-57
2023/03/30 01:55:39;;;;;;;;;;;4.20;99.90;;;;;;5056521;28;20008;-57
2023/03/30 01:58:09;;;;;;;;;;;4.20;99.90;;;;;;5056258;28;19920;-57
2023/03/30 02:00:37;;;;;;;;;;;4.20;99.90;;;;;;5056430;28;19955;-56
2023/03/30 02:03:13;;;;;;;;;;;4.20;99.90;;;;;;5074422;28;19948;-57
2023/03/30 02:05:40;;;;;;;;;;;4.20;99.90;;;;;;5074177;28;19920;-56
2023/03/30 02:08:08;;;;;;;;;;;4.10;99.90;;;;;;5073904;28;19916;-57
2023/03/30 02:10:36;;;;;;;;;;;4.10;99.90;;;;;;5056868;28;19913;-56
2023/03/30 02:13:03;;;;;;;;;;;3.90;99.90;;;;;;5074405;28;20027;-56
2023/03/30 02:15:33;;;;;;;;;;;3.90;99.90;;;;;;5074580;28;20358;-56
2023/03/30 02:17:59;;;;;;;;;;;3.80;99.90;;;;;;5060033;28;20011;-56
2023/03/30 02:20:27;;;;;;;;;;;3.80;99.90;;;;;;5078259;28;19966;-56
2023/03/30 02:22:53;;;;;;;;;;;3.70;99.90;;;;;;5060325;28;19964;-56
2023/03/30 02:25:19;;;;;;;;;;;3.70;99.90;;;;;;5078514;28;19913;-57
2023/03/30 02:27:46;;;;;;;;;;;3.70;99.90;;;;;;5078285;28;19909;-56
2023/03/30 02:30:13;;;;;;;;;;;3.70;99.90;;;;;;5078283;28;20735;-56
2023/03/30 02:32:57;;;;;;;;;;;3.70;99.90;;;;;;5078222;28;19922;-56
2023/03/30 02:35:35;;;;;;;;;;;3.70;99.90;;;;;;5078253;28;19944;-56
2023/03/30 02:38:08;;;;;;;;;;;3.70;99.90;;;;;;5078126;28;19999;-57
2023/03/30 02:40:37;;;;;;;;;;;3.70;99.90;;;;;;5078034;28;20353;-56
2023/03/30 02:43:24;;;;;;;;;;;3.80;99.90;;;;;;5059260;28;20304;-56
2023/03/30 02:46:10;;;;;;;;;;;3.80;99.90;;;;;;5059699;28;19966;-56
2023/03/30 02:48:45;;;;;;;;;;;3.80;99.90;;;;;;5059895;28;20362;-56
2023/03/30 02:51:27;;;;;;;;;;;3.70;99.90;;;;;;5059724;28;19967;-56
2023/03/30 02:54:37;;;;;;;;;;;3.60;99.90;;;;;;5032921;28;19924;-56
2023/03/30 02:57:25;;;;;;;;;;;3.40;99.90;;;;;;5077569;28;19951;-56
2023/03/30 02:59:57;;;;;;;;;;;3.40;99.90;;;;;;5059746;28;19920;-56
2023/03/30 03:02:34;;;;;;;;;;;3.30;99.90;;;;;;5059663;28;19913;-56
2023/03/30 03:05:12;;;;;;;;;;;3.30;99.90;;;;;;5059303;28;20293;-56
2023/03/30 03:07:53;;;;;;;;;;;3.30;99.90;;;;;;5059577;28;19913;-56
2023/03/30 03:10:19;;;;;;;;;;;3.20;99.90;;;;;;5059479;28;20372;-56
2023/03/30 03:12:45;;;;;;;;;;;3.20;99.90;;;;;;5059422;28;20438;-56
2023/03/30 03:15:12;;;;;;;;;;;3.30;99.90;;;;;;5059459;28;19913;-57
2023/03/30 03:17:48;;;;;;;;;;;3.30;99.90;;;;;;5059312;28;19920;-56
2023/03/30 03:20:14;;;;;;;;;;;3.20;99.90;;;;;;5077213;28;19912;-56
2023/03/30 03:22:42;;;;;;;;;;;3.20;99.90;;;;;;5059372;28;19913;-56
2023/03/30 03:25:09;;;;;;;;;;;3.20;99.90;;;;;;5059156;28;20606;-56
2023/03/30 03:27:51;;;;;;;;;;;3.10;99.90;;;;;;5059103;28;20384;-56
2023/03/30 03:30:20;;;;;;;;;;;3.10;99.90;;;;;;5059080;28;19913;-56
2023/03/30 03:32:56;;;;;;;;;;;3.00;99.90;;;;;;5058769;28;19920;-56
2023/03/30 03:35:24;;;;;;;;;;;3.10;99.90;;;;;;5059086;28;19912;-56
2023/03/30 03:37:50;;;;;;;;;;;3.00;99.90;;;;;;5059238;28;19912;-56
2023/03/30 03:40:16;;;;;;;;;;;3.00;99.90;;;;;;5058901;28;19919;-56
2023/03/30 03:42:42;;;;;;;;;;;3.00;99.90;;;;;;5058932;28;19917;-56
2023/03/30 03:45:10;;;;;;;;;;;2.90;99.90;;;;;;5058098;28;19913;-56
2023/03/30 03:47:49;;;;;;;;;;;2.90;99.90;;;;;;5058388;28;19912;-56
2023/03/30 03:50:15;;;;;;;;;;;2.90;99.90;;;;;;5058809;28;19913;-56
2023/03/30 03:52:41;;;;;;;;;;;2.90;99.90;;;;;;5055137;28;19927;-56
2023/03/30 03:55:07;;;;;;;;;;;2.80;99.90;;;;;;5055071;28;20122;-57
2023/03/30 03:57:35;;;;;;;;;;;2.70;99.90;;;;;;5054674;28;19919;-56
2023/03/30 04:00:02;;;;;;;;;;;2.70;99.90;;;;;;5055094;28;19913;-56
2023/03/30 04:02:37;;;;;;;;;;;2.60;99.90;;;;;;5056596;28;19998;-56
2023/03/30 04:05:03;;;;;;;;;;;2.60;99.90;;;;;;5054721;28;19921;-56
2023/03/30 04:07:29;;;;;;;;;;;2.70;99.90;;;;;;5056233;28;19939;-56
2023/03/30 04:09:55;;;;;;;;;;;2.70;99.90;;;;;;5054820;28;19994;-57
2023/03/30 04:12:35;;;;;;;;;;;2.70;99.90;;;;;;5055966;28;19928;-56
2023/03/30 04:15:16;;;;;;;;;;;2.70;99.90;;;;;;5054933;28;19913;-56
2023/03/30 04:17:58;;;;;;;;;;;2.60;99.90;;;;;;5054922;28;19931;-56
2023/03/30 04:20:48;;;;;;;;;;;2.60;99.90;;;;;;5054620;28;19965;-56
2023/03/30 04:23:34;;;;;;;;;;;2.60;99.90;;;;;;5055959;28;20243;-56
2023/03/30 04:26:23;;;;;;;;;;;2.50;99.90;;;;;;5045656;28;19960;-56
2023/03/30 04:28:52;;;;;;;;;;;2.50;99.90;;;;;;5055375;28;19924;-56
2023/03/30 04:31:41;;;;;;;;;;;2.60;99.90;;;;;;5053924;28;20259;-56
2023/03/30 04:34:42;;;;;;;;;;;2.70;99.90;;;;;;5056726;28;19960;-56
2023/03/30 04:37:29;;;;;;;;;;;2.60;99.90;;;;;;5053824;28;19913;-56
2023/03/30 04:40:15;;;;;;;;;;;2.70;99.90;;;;;;5054732;28;19974;-56
2023/03/30 04:43:03;;;;;;;;;;;2.70;99.90;;;;;;5054698;28;19916;-56
2023/03/30 04:45:50;;;;;;;;;;;2.60;99.90;;;;;;5053655;28;19916;-56
2023/03/30 04:48:22;;;;;;;;;;;2.70;99.90;;;;;;5055175;28;19919;-56
2023/03/30 04:50:57;;;;;;;;;;;2.80;99.90;;;;;;5054780;28;19919;-56
2023/03/30 04:53:55;;;;;;;;;;;2.90;99.90;;;;;;5072662;28;20011;-56
2023/03/30 04:56:47;;;;;;;;;;;3.20;99.90;;;;;;5043177;28;19913;-56
2023/03/30 04:59:21;;;;;;;;;;;3.20;99.90;;;;;;5074935;28;19918;-56
2023/03/30 05:02:11;;;;;;;;;;;3.30;99.90;;;;;;5056743;28;20374;-56
2023/03/30 05:04:54;;;;;;;;;;;3.50;99.90;;;;;;5056582;28;19913;-56
2023/03/30 05:07:38;;;;;;;;;;;3.60;99.90;;;;;;5075188;28;19970;-56
2023/03/30 05:10:19;;;;;;;;;;;3.60;99.90;;;;;;5056866;28;20445;-56
2023/03/30 05:13:05;;;;;;;;;;;3.80;99.90;;;;;;5043071;28;20388;-56
2023/03/30 05:15:57;;;;;;;;;;;4.00;99.90;;;;;;5056785;28;19916;-56
2023/03/30 05:18:42;;;;;;;;;;;4.10;99.90;;;;;;5074757;28;19920;-56
2023/03/30 05:21:10;;;;;;;;;;;4.20;99.90;;;;;;5068305;28;20372;-57
2023/03/30 05:23:45;;;;;;;;;;;4.40;99.90;;;;;;5075215;28;19930;-56
2023/03/30 05:26:50;;;;;;;;;;;4.70;99.90;;;;;;5065871;28;20013;-56
2023/03/30 05:29:27;;;;;;;;;;;4.90;99.90;;;;;;5057088;28;19913;-56
2023/03/30 05:32:20;;;;;;;;;;;5.20;99.90;;;;;;5090452;28;20057;-57
2023/03/30 05:34:52;;;;;;;;;;;5.40;99.90;;;;;;5075302;28;19920;-56
2023/03/30 05:37:39;;;;;;;;;;;5.70;99.90;;;;;;5072393;28;19919;-56
2023/03/30 05:40:37;;;;;;;;;;;5.70;99.90;;;;;;5055013;28;19916;-57
2023/03/30 05:43:23;;;;;;;;;;;6.00;99.90;;;;;;5052583;28;19912;-57
2023/03/30 05:46:27;;;;;;;;;;;6.30;99.90;;;;;;5049420;28;19913;-57
2023/03/30 05:49:08;;;;;;;;;;;6.30;99.90;;;;;;5051401;28;20445;-57
2023/03/30 05:52:10;;;;;;;;;;;6.40;99.90;;;;;;5037545;28;19959;-57
2023/03/30 05:54:55;;;;;;;;;;;6.50;99.90;;;;;;5055221;28;19968;-57
2023/03/30 05:57:50;;;;;;;;;;;6.50;99.90;;;;;;5042538;28;20402;-57
2023/03/30 06:00:36;;;;;;;;;;;6.60;99.90;;;;;;5045151;28;19913;-56
2023/03/30 06:03:13;;;;;;;;;;;6.40;99.90;;;;;;5030720;28;19921;-57
2023/03/30 06:05:42;;;;;;;;;;;6.40;99.90;;;;;;5045290;28;19920;-56
2023/03/30 06:08:09;;;;;;;;;;;6.50;99.90;;;;;;5037254;28;19960;-56
2023/03/30 06:10:36;;;;;;;;;;;6.70;99.90;;;;;;5054895;28;19963;-57
2023/03/30 06:13:02;;;;;;;;;;;6.90;99.90;;;;;;5038064;28;19959;-57
2023/03/30 06:15:40;;;;;;;;;;;7.20;99.90;;;;;;5037196;28;19984;-57
2023/03/30 06:18:09;;;;;;;;;;;7.20;99.90;;;;;;5050971;28;19913;-57
2023/03/30 06:20:39;;;;;;;;;;;7.30;99.90;;;;;;5060143;28;19920;-57
2023/03/30 06:23:05;;;;;;;;;;;7.40;99.90;;;;;;5059777;28;20354;-57
2023/03/30 06:25:31;;;;;;;;;;;7.50;99.90;;;;;;5059736;28;19909;-57
2023/03/30 06:27:57;;;;;;;;;;;7.50;99.90;;;;;;5060191;28;19920;-57
2023/03/30 06:30:24;;;;;;;;;;;7.60;99.90;;;;;;5059038;28;19919;-57
2023/03/30 06:32:53;;;;;;;;;;;7.80;99.90;;;;;;5059374;28;20285;-57
2023/03/30 06:35:34;;;;;;;;;;;7.60;99.90;;;;;;5093709;28;19923;-57
2023/03/30 06:38:01;;;;;;;;;;;7.60;99.90;;;;;;5059835;28;19969;-57
2023/03/30 06:40:27;;;;;;;;;;;7.90;99.90;;;;;;5059861;28;19944;-57
2023/03/30 06:42:54;;;;;;;;;;;8.30;99.90;;;;;;5059665;28;19909;-57
2023/03/30 06:45:27;;;;;;;;;;;8.90;99.90;;;;;;5059303;28;20374;-57
2023/03/30 06:47:53;;;;;;;;;;;9.40;99.90;;;;;;5077194;28;19912;-57
2023/03/30 06:50:20;;;;;;;;;;;10.10;99.90;;;;;;5059324;28;19912;-57
2023/03/30 06:53:05;;;;;;;;;;;10.20;99.90;;;;;;5059478;28;19927;-57
2023/03/30 06:55:39;;;;;;;;;;;10.20;99.90;;;;;;5059579;28;20385;-57
2023/03/30 06:58:06;;;;;;;;;;;10.30;99.90;;;;;;5059536;28;19913;-57
2023/03/30 07:00:32;;;;;;;;;;;10.40;99.90;;;;;;5056542;28;20624;-57
2023/03/30 07:03:17;;;;;;;;;;;10.60;99.90;;;;;;5076556;28;19973;-57
2023/03/30 07:05:51;;;;;;;;;;;10.80;99.90;;;;;;5063797;28;20362;-57
2023/03/30 07:08:32;;;;;;;;;;;10.70;99.90;;;;;;5059060;28;20415;-57
2023/03/30 07:10:59;;;;;;;;;;;10.60;99.90;;;;;;5059239;28;20003;-57
2023/03/30 07:13:30;;;;;;;;;;;10.80;99.90;;;;;;5057911;28;20015;-57
2023/03/30 07:15:56;;;;;;;;;;;10.80;99.90;;;;;;5076878;28;19947;-57
2023/03/30 07:18:22;;;;;;;;;;;10.90;99.90;;;;;;5092439;28;19908;-57
2023/03/30 07:20:48;;;;;;;;;;;11.00;99.90;;;;;;5076301;28;20039;-57
2023/03/30 07:23:20;;;;;;;;;;;11.00;99.90;;;;;;5077021;28;19965;-57
2023/03/30 07:25:48;;;;;;;;;;;11.40;99.90;;;;;;5059087;28;20051;-57
2023/03/30 07:28:18;;;;;;;;;;;11.70;99.90;;;;;;5077046;28;19916;-57
2023/03/30 07:30:45;;;;;;;;;;;12.20;99.90;;;;;;5058667;28;19913;-57
2023/03/30 07:33:14;;;;;;;;;;;12.50;99.90;;;;;;5058031;28;19920;-57
2023/03/30 07:35:45;;;;;;;;;;;12.90;99.90;;;;;;5063772;28;19917;-57
2023/03/30 07:38:16;;;;;;;;;;;13.10;99.90;;;;;;5073272;28;19988;-57
2023/03/30 07:40:48;;;;;;;;;;;13.40;99.90;;;;;;5056848;28;19980;-57
2023/03/30 07:43:17;;;;;;;;;;;13.30;99.90;;;;;;5091245;28;19912;-57
2023/03/30 07:45:43;;;;;;;;;;;14.00;99.90;;;;;;5057556;28;19924;-57
2023/03/30 07:48:13;;;;;;;;;;;14.20;99.90;;;;;;5089895;28;19966;-57
2023/03/30 07:50:39;;;;;;;;;;;14.30;99.90;;;;;;5067292;28;20310;-57
2023/03/30 07:53:05;;;;;;;;;;;14.20;99.90;;;;;;5064900;28;19924;-58
2023/03/30 07:55:31;;;;;;;;;;;14.70;99.90;;;;;;5037337;28;19917;-58
2023/03/30 07:58:07;;;;;;;;;;;14.90;99.90;;;;;;5049791;28;20381;-58
2023/03/30 08:00:33;;;;;;;;;;;15.30;99.90;;;;;;5056465;28;19917;-58
2023/03/30 08:10:59;;;;;;;;;;;15.90;99.90;;;;;;5047467;28;19923;-57
2023/03/30 08:13:26;;;;;;;;;;;16.10;99.90;;;;;;5054526;28;19924;-58
2023/03/30 08:15:53;;;;;;;;;;;16.20;99.90;;;;;;5065702;28;20321;-58
2023/03/30 08:18:19;;;;;;;;;;;16.50;99.90;;;;;;5066674;28;20401;-58
2023/03/30 08:20:48;;;;;;;;;;;16.70;99.90;;;;;;5073556;28;19913;-58
2023/03/30 08:23:15;;;;;;;;;;;16.90;99.90;;;;;;5074861;28;20003;-58
2023/03/30 08:25:41;;;;;;;;;;;16.90;99.90;;;;;;5073087;28;19936;-58
2023/03/30 08:28:07;;;;;;;;;;;16.90;99.90;;;;;;5074807;28;20012;-58
2023/03/30 08:30:33;;;;;;;;;;;16.80;99.90;;;;;;5069960;28;19917;-58
2023/03/30 08:32:59;;;;;;;;;;;16.90;99.90;;;;;;5074142;28;19923;-58
2023/03/30 08:35:25;;;;;;;;;;;16.70;99.90;;;;;;5074625;28;20354;-58
2023/03/30 08:37:52;;;;;;;;;;;17.10;99.90;;;;;;5074339;28;20267;-58
2023/03/30 08:40:18;;;;;;;;;;;17.50;99.90;;;;;;5074063;28;20373;-58
2023/03/30 08:42:54;;;;;;;;;;;17.70;99.90;;;;;;5072765;28;19924;-58
2023/03/30 08:45:20;;;;;;;;;;;18.00;99.90;;;;;;5074382;28;19912;-58
2023/03/30 08:47:48;;;;;;;;;;;18.30;99.90;;;;;;5074308;28;20396;-58
2023/03/30 08:50:18;;;;;;;;;;;18.30;99.90;;;;;;5073798;28;19920;-58
2023/03/30 08:52:44;;;;;;;;;;;18.30;99.90;;;;;;5072067;28;19927;-58
2023/03/30 08:55:19;;;;;;;;;;;19.00;99.90;;;;;;5074388;28;19912;-58
2023/03/30 08:57:50;;;;;;;;;;;18.60;99.90;;;;;;5073826;28;19913;-58
2023/03/30 09:00:26;;;;;;;;;;;18.20;99.90;;;;;;5074169;28;19966;-59
2023/03/30 09:03:17;;;;;;;;;;;18.50;99.90;;;;;;5074684;28;20282;-58
2023/03/30 09:05:46;;;;;;;;;;;18.50;99.90;;;;;;5073446;28;19966;-58
2023/03/30 09:08:12;;;;;;;;;;;18.90;99.90;;;;;;5073198;28;20431;-58
2023/03/30 09:10:40;;;;;;;;;;;19.10;99.90;;;;;;5074663;28;20015;-58
2023/03/30 09:13:06;;;;;;;;;;;19.00;99.90;;;;;;5074270;28;19916;-58
2023/03/30 09:15:35;;;;;;;;;;;19.00;99.90;;;;;;5074471;28;19919;-58
2023/03/30 09:18:06;;;;;;;;;;;18.80;99.90;;;;;;5072665;28;19979;-58
2023/03/30 09:20:33;;;;;;;;;;;18.60;99.90;;;;;;5067659;28;20263;-58
2023/03/30 09:23:00;;;;;;;;;;;19.10;99.90;;;;;;5054854;28;20434;-58
2023/03/30 09:25:35;;;;;;;;;;;19.40;99.90;;;;;;5055007;28;19908;-58
2023/03/30 09:28:10;;;;;;;;;;;19.50;99.90;;;;;;5065251;28;19935;-58
2023/03/30 09:30:38;;;;;;;;;;;19.60;99.90;;;;;;5068233;28;20316;-58
2023/03/30 09:33:23;;;;;;;;;;;20.00;99.90;;;;;;5078910;28;19920;-58
2023/03/30 09:36:09;;;;;;;;;;;20.70;99.90;;;;;;5070449;28;19927;-59
2023/03/30 09:38:40;;;;;;;;;;;21.40;99.90;;;;;;5075059;28;20388;-59
2023/03/30 09:41:16;;;;;;;;;;;22.00;99.90;;;;;;5078447;28;20057;-59
2023/03/30 09:43:45;;;;;;;;;;;22.40;99.90;;;;;;5077650;28;20305;-59
2023/03/30 09:46:12;;;;;;;;;;;22.00;99.90;;;;;;5074747;28;19912;-59
2023/03/30 09:48:42;;;;;;;;;;;22.70;99.90;;;;;;5074382;28;19912;-59
2023/03/30 09:51:16;;;;;;;;;;;23.00;99.90;;;;;;5073171;28;19932;-59
2023/03/30 09:53:49;;;;;;;;;;;23.30;99.90;;;;;;5073293;28;19921;-59
2023/03/30 09:56:29;;;;;;;;;;;23.20;99.90;;;;;;5075020;28;19919;-59
2023/03/30 09:58:55;;;;;;;;;;;22.90;99.90;;;;;;5078479;28;19977;-59
2023/03/30 10:01:33;;;;;;;;;;;23.10;99.90;;;;;;5078037;28;20351;-59
2023/03/30 10:04:05;;;;;;;;;;;23.10;99.90;;;;;;5076698;28;19920;-59
2023/03/30 10:06:34;;;;;;;;;;;23.20;99.90;;;;;;5073546;28;20279;-59
2023/03/30 10:09:04;;;;;;;;;;;23.40;99.90;;;;;;5077914;28;19917;-59
2023/03/30 10:11:43;;;;;;;;;;;23.40;99.90;;;;;;5077312;28;20356;-59
2023/03/30 10:14:30;;;;;;;;;;;23.60;99.90;;;;;;5077782;28;19921;-59
2023/03/30 10:17:00;;;;;;;;;;;23.60;99.90;;;;;;5077059;28;20373;-59
2023/03/30 10:19:27;;;;;;;;;;;23.70;99.90;;;;;;5076587;28;19919;-59
2023/03/30 10:21:58;;;;;;;;;;;24.30;99.90;;;;;;5077110;28;19927;-59
2023/03/30 10:24:35;;;;;;;;;;;24.30;99.90;;;;;;5076200;28;19912;-59
2023/03/30 10:27:08;;;;;;;;;;;24.30;99.90;;;;;;5059827;28;19952;-59
2023/03/30 10:29:35;;;;;;;;;;;23.90;99.90;;;;;;5077958;28;19924;-59
2023/03/30 10:32:11;;;;;;;;;;;24.50;99.90;;;;;;5074406;28;19925;-60
2023/03/30 10:34:39;;;;;;;;;;;24.60;99.90;;;;;;5076706;28;20391;-59
2023/03/30 10:37:10;;;;;;;;;;;24.50;99.90;;;;;;5074759;28;19965;-59
2023/03/30 10:39:38;;;;;;;;;;;25.20;99.90;;;;;;5076250;28;19978;-59
2023/03/30 10:42:04;;;;;;;;;;;24.90;99.90;;;;;;5076617;28;19916;-59
2023/03/30 10:44:31;;;;;;;;;;;24.90;99.90;;;;;;5076616;28;20270;-59
2023/03/30 10:47:16;;;;;;;;;;;25.10;99.90;;;;;;5075829;28;19916;-59
2023/03/30 10:50:00;;;;;;;;;;;25.10;99.90;;;;;;5064081;28;19927;-59
2023/03/30 10:52:36;;;;;;;;;;;24.90;99.90;;;;;;5075216;28;19920;-60
2023/03/30 10:55:16;;;;;;;;;;;25.40;99.90;;;;;;5076246;28;19924;-59
2023/03/30 10:57:51;;;;;;;;;;;25.70;99.90;;;;;;5077361;28;19934;-59
2023/03/30 11:00:43;;;;;;;;;;;25.50;99.90;;;;;;5068754;28;19983;-59
2023/03/30 11:03:28;;;;;;;;;;;24.70;99.90;;;;;;5060326;28;20297;-59
2023/03/30 11:06:04;;;;;;;;;;;24.10;99.90;;;;;;5072146;28;20008;-59
2023/03/30 11:08:33;;;;;;;;;;;24.50;99.90;;;;;;5068670;28;19917;-59
2023/03/30 11:10:59;;;;;;;;;;;24.90;99.90;;;;;;5064784;28;20031;-59
2023/03/30 11:13:26;;;;;;;;;;;24.70;99.90;;;;;;5056083;28;19999;-59
2023/03/30 11:16:04;;;;;;;;;;;23.50;99.90;;;;;;5061302;28;19912;-59
2023/03/30 11:18:41;;;;;;;;;;;23.50;99.90;;;;;;5062525;28;20491;-59
2023/03/30 11:21:11;;;;;;;;;;;23.40;99.90;;;;;;5070549;28;19935;-59
2023/03/30 11:23:46;;;;;;;;;;;23.70;99.90;;;;;;5062476;28;19973;-60
2023/03/30 11:26:16;;;;;;;;;;;24.20;99.90;;;;;;5064538;28;20372;-59
2023/03/30 11:28:45;;;;;;;;;;;24.80;99.90;;;;;;5058549;28;20030;-59
2023/03/30 11:31:41;;;;;;;;;;;25.00;99.90;;;;;;5070529;28;19999;-59
2023/03/30 11:34:12;;;;;;;;;;;25.00;99.90;;;;;;5065142;28;20277;-59
2023/03/30 11:36:38;;;;;;;;;;;25.10;99.90;;;;;;5075924;28;20402;-59
2023/03/30 11:39:09;;;;;;;;;;;24.90;99.90;;;;;;5074758;28;19912;-59
2023/03/30 11:41:47;;;;;;;;;;;24.90;99.90;;;;;;5074377;28;19913;-59
2023/03/30 11:44:13;;;;;;;;;;;24.40;99.90;;;;;;5068972;28;20378;-59
2023/03/30 11:46:41;;;;;;;;;;;24.70;99.90;;;;;;5063721;28;19927;-59
2023/03/30 11:49:19;;;;;;;;;;;24.40;99.90;;;;;;5075694;28;20007;-59
2023/03/30 11:52:17;;;;;;;;;;;24.30;99.90;;;;;;5075404;28;19958;-59
2023/03/30 11:55:02;;;;;;;;;;;24.20;99.90;;;;;;5074794;28;19931;-59
2023/03/30 11:58:00;;;;;;;;;;;23.80;99.90;;;;;;5075489;28;20361;-59
2023/03/30 12:00:29;;;;;;;;;;;23.60;99.90;;;;;;5020283;28;19928;-59
2023/03/30 12:03:14;;;;;;;;;;;23.40;99.90;;;;;;5075425;28;19920;-59
2023/03/30 12:05:45;;;;;;;;;;;23.10;99.90;;;;;;5074226;28;20297;-59
2023/03/30 12:08:17;;;;;;;;;;;23.00;99.90;;;;;;5073974;28;19920;-59
2023/03/30 12:10:44;;;;;;;;;;;23.10;99.90;;;;;;5075042;28;19963;-59
2023/03/30 12:13:14;;;;;;;;;;;23.10;99.90;;;;;;5075140;28;20008;-59
2023/03/30 12:15:56;;;;;;;;;;;23.00;99.90;;;;;;5074752;28;19912;-59
2023/03/30 12:18:40;;;;;;;;;;;23.00;99.90;;;;;;5071352;28;19920;-59
2023/03/30 12:21:06;;;;;;;;;;;23.00;99.90;;;;;;5073939;28;20385;-59
2023/03/30 12:23:40;;;;;;;;;;;22.80;99.90;;;;;;5074463;28;19920;-59
2023/03/30 12:26:06;;;;;;;;;;;22.60;99.90;;;;;;5073871;28;19912;-59
2023/03/30 12:28:46;;;;;;;;;;;22.70;99.90;;;;;;5075002;28;19920;-59
2023/03/30 12:31:13;;;;;;;;;;;22.70;99.90;;;;;;5074284;28;19912;-59
2023/03/30 12:33:45;;;;;;;;;;;23.00;99.90;;;;;;5073826;28;19920;-59
2023/03/30 12:36:33;;;;;;;;;;;23.00;99.90;;;;;;5075058;28;19912;-59
2023/03/30 12:39:07;;;;;;;;;;;23.20;99.90;;;;;;5058701;28;20686;-59
2023/03/30 12:41:49;;;;;;;;;;;23.50;99.90;;;;;;5072466;28;19913;-59
2023/03/30 12:44:35;;;;;;;;;;;23.60;99.90;;;;;;5074831;28;19916;-59
2023/03/30 12:47:08;;;;;;;;;;;23.50;99.90;;;;;;5074544;28;19919;-59
2023/03/30 12:49:46;;;;;;;;;;;24.00;99.90;;;;;;5074456;28;19923;-59
2023/03/30 12:52:22;;;;;;;;;;;24.20;99.90;;;;;;5074429;28;19913;-58
2023/03/30 12:54:53;;;;;;;;;;;23.90;99.90;;;;;;5074180;28;19920;-58
2023/03/30 12:57:26;;;;;;;;;;;24.30;99.90;;;;;;5074861;28;19920;-58
2023/03/30 12:59:58;;;;;;;;;;;24.50;99.90;;;;;;5072720;28;20418;-58
2023/03/30 13:02:39;;;;;;;;;;;24.50;99.90;;;;;;5063204;28;19917;-58
2023/03/30 13:05:20;;;;;;;;;;;24.70;99.90;;;;;;5072793;28;19979;-58
2023/03/30 13:07:46;;;;;;;;;;;25.10;99.90;;;;;;5073377;28;19934;-58
2023/03/30 13:10:34;;;;;;;;;;;25.50;99.90;;;;;;5064201;28;20274;-58
2023/03/30 13:13:01;;;;;;;;;;;25.60;99.90;;;;;;5074037;28;19931;-58
2023/03/30 13:15:38;;;;;;;;;;;25.90;99.90;;;;;;5068937;28;19980;-58
2023/03/30 13:18:07;;;;;;;;;;;25.90;99.90;;;;;;5063118;28;19916;-58
2023/03/30 13:20:34;;;;;;;;;;;26.20;99.90;;;;;;5054300;28;19917;-58
2023/03/30 13:23:04;;;;;;;;;;;25.90;99.90;;;;;;5052968;28;20342;-58
2023/03/30 13:25:37;;;;;;;;;;;25.80;99.90;;;;;;5047677;28;19916;-58
2023/03/30 13:28:23;;;;;;;;;;;25.50;99.90;;;;;;5074146;28;19927;-58
2023/03/30 13:30:49;;;;;;;;;;;25.50;99.90;;;;;;5073872;28;20309;-58
2023/03/30 13:33:19;;;;;;;;;;;25.60;99.90;;;;;;5072509;28;20015;-58
2023/03/30 13:35:45;;;;;;;;;;;25.60;99.90;;;;;;5072910;28;19924;-58
2023/03/30 13:38:14;;;;;;;;;;;25.80;99.90;;;;;;5071488;28;19917;-58
2023/03/30 13:41:10;;;;;;;;;;;25.90;99.90;;;;;;5070737;28;20011;-58
2023/03/30 13:43:46;;;;;;;;;;;25.70;99.90;;;;;;5050146;28;19923;-58
2023/03/30 13:46:14;;;;;;;;;;;25.20;99.90;;;;;;5051494;28;20445;-58
2023/03/30 13:48:47;;;;;;;;;;;25.00;99.90;;;;;;5056482;28;19913;-58
2023/03/30 13:51:15;;;;;;;;;;;25.00;99.90;;;;;;5059366;28;19959;-58
2023/03/30 13:53:45;;;;;;;;;;;25.30;99.90;;;;;;5052954;28;19932;-58
2023/03/30 13:56:12;;;;;;;;;;;25.30;99.90;;;;;;5053566;28;19912;-58
2023/03/30 13:58:39;;;;;;;;;;;25.20;99.90;;;;;;5052872;28;20419;-58
2023/03/30 14:01:10;;;;;;;;;;;25.00;99.90;;;;;;5068776;28;19917;-58
2023/03/30 14:03:47;;;;;;;;;;;25.10;99.90;;;;;;5073456;28;19913;-58
2023/03/30 14:06:13;;;;;;;;;;;25.10;99.90;;;;;;5072999;28;19939;-58
2023/03/30 14:08:43;;;;;;;;;;;24.80;99.90;;;;;;5073006;28;19917;-58
2023/03/30 14:11:17;;;;;;;;;;;24.90;99.90;;;;;;5073411;28;19917;-59
2023/03/30 14:13:44;;;;;;;;;;;24.80;99.90;;;;;;5075777;28;19921;-58
2023/03/30 14:16:16;;;;;;;;;;;24.40;99.90;;;;;;5077561;28;19916;-58
2023/03/30 14:18:42;;;;;;;;;;;24.40;99.90;;;;;;5074702;28;20305;-58
2023/03/30 14:21:11;;;;;;;;;;;24.90;99.90;;;;;;5076490;28;20076;-58
2023/03/30 14:23:40;;;;;;;;;;;24.90;99.90;;;;;;5076922;28;19920;-58
2023/03/30 14:26:16;;;;;;;;;;;25.00;99.90;;;;;;5077214;28;19912;-58
2023/03/30 14:28:42;;;;;;;;;;;25.00;99.90;;;;;;5076372;28;19996;-58
2023/03/30 14:31:13;;;;;;;;;;;25.10;99.90;;;;;;5076483;28;19912;-58
2023/03/30 14:33:39;;;;;;;;;;;25.10;99.90;;;;;;5076700;28;20007;-58
2023/03/30 14:36:07;;;;;;;;;;;25.00;99.90;;;;;;5077062;28;19912;-58
2023/03/30 14:38:41;;;;;;;;;;;24.80;99.90;;;;;;5076812;28;19912;-58
2023/03/30 14:41:06;;;;;;;;;;;24.60;99.90;;;;;;5076958;28;19982;-58
2023/03/30 14:43:33;;;;;;;;;;;24.50;99.90;;;;;;5076697;28;19916;-58
2023/03/30 14:46:03;;;;;;;;;;;24.10;99.90;;;;;;5076911;28;19916;-58
2023/03/30 14:48:34;;;;;;;;;;;24.10;99.90;;;;;;5076546;28;19960;-58
2023/03/30 14:51:00;;;;;;;;;;;24.00;99.90;;;;;;5076577;28;19920;-58
2023/03/30 14:53:27;;;;;;;;;;;23.80;99.90;;;;;;5076252;28;19927;-58
2023/03/30 14:55:55;;;;;;;;;;;23.90;99.90;;;;;;5076606;28;20270;-58
2023/03/30 14:58:25;;;;;;;;;;;23.70;99.90;;;;;;5076856;28;19913;-58
2023/03/30 15:00:57;;;;;;;;;;;23.60;99.90;;;;;;5076637;28;20385;-58
2023/03/30 15:03:25;;;;;;;;;;;23.50;99.90;;;;;;5076372;28;19952;-58
2023/03/30 15:05:50;;;;;;;;;;;23.40;99.90;;;;;;5076414;28;19965;-58